Time;durP1;ratioP1;P1;durP2;ratioP2;P2;SDS_P1;SDS_P2;PMS_P1;PMS_P2;Temp;Humidity;BMP_temperature;BMP_pressure;BME280_temperature;BME280_humidity;BME280_pressure;Samples;Min_cycle;Max_cycle;Signal;HPM_P1;HPM_P2
2022/09/26 00:00:32;;;;;;;5.13;3.65;;;;;;;;;;5021867;28;20054;-92
2022/09/26 00:02:58;;;;;;;5.85;4.57;;;;;;;;;;5022839;28;20531;-93
2022/09/26 00:05:26;;;;;;;4.10;3.28;;;;;;;;;;5021160;28;20460;-92
2022/09/26 00:07:53;;;;;;;5.53;3.42;;;;;;;;;;5021914;28;20076;-91
2022/09/26 00:10:19;;;;;;;6.07;4.88;;;;;;;;;;5021282;28;20046;-91
2022/09/26 00:12:45;;;;;;;4.03;3.20;;;;;;;;;;5022224;28;20108;-91
2022/09/26 00:15:12;;;;;;;6.55;5.00;;;;;;;;;;5022186;28;20046;-91
2022/09/26 00:17:38;;;;;;;5.18;4.40;;;;;;;;;;5022826;28;20486;-91
2022/09/26 00:20:05;;;;;;;6.00;3.92;;;;;;;;;;5021170;28;20388;-91
2022/09/26 00:22:33;;;;;;;5.07;4.03;;;;;;;;;;5021262;28;20053;-91
2022/09/26 00:25:00;;;;;;;4.85;3.92;;;;;;;;;;5022685;28;20046;-91
2022/09/26 00:27:26;;;;;;;4.38;3.97;;;;;;;;;;5023251;28;20049;-92
2022/09/26 00:29:53;;;;;;;5.35;4.25;;;;;;;;;;5022438;28;20135;-91
2022/09/26 00:32:19;;;;;;;4.93;3.50;;;;;;;;;;5023244;28;20045;-92
2022/09/26 00:34:46;;;;;;;4.43;3.92;;;;;;;;;;5021738;28;20321;-89
2022/09/26 00:37:12;;;;;;;6.53;3.33;;;;;;;;;;5021367;28;20041;-89
2022/09/26 00:39:40;;;;;;;6.05;4.28;;;;;;;;;;5021417;28;20095;-89
2022/09/26 00:42:07;;;;;;;5.28;3.65;;;;;;;;;;5019933;28;20092;-89
2022/09/26 00:44:36;;;;;;;4.22;3.50;;;;;;;;;;5021268;28;20054;-89
2022/09/26 00:47:03;;;;;;;5.10;3.47;;;;;;;;;;5023171;28;20046;-89
2022/09/26 00:49:32;;;;;;;4.13;3.70;;;;;;;;;;5021897;28;20108;-89
2022/09/26 00:52:05;;;;;;;4.85;4.35;;;;;;;;;;5021366;28;20110;-89
2022/09/26 00:54:32;;;;;;;7.80;4.13;;;;;;;;;;5020622;28;20053;-89
2022/09/26 00:57:03;;;;;;;6.38;4.05;;;;;;;;;;5021148;28;20072;-89
2022/09/26 00:59:31;;;;;;;8.02;5.05;;;;;;;;;;5020148;28;20073;-89
2022/09/26 01:01:58;;;;;;;5.55;3.97;;;;;;;;;;5020663;28;20046;-88
2022/09/26 01:04:27;;;;;;;6.60;3.08;;;;;;;;;;5021102;28;20509;-89
2022/09/26 01:06:53;;;;;;;8.07;4.25;;;;;;;;;;5020209;28;20049;-89
2022/09/26 01:09:20;;;;;;;6.10;4.70;;;;;;;;;;5021277;28;20054;-89
2022/09/26 01:11:47;;;;;;;3.60;3.03;;;;;;;;;;5022883;28;20068;-89
2022/09/26 01:14:15;;;;;;;6.30;4.60;;;;;;;;;;5022392;28;20068;-89
2022/09/26 01:16:44;;;;;;;3.95;3.17;;;;;;;;;;5022140;28;20113;-89
2022/09/26 01:19:14;;;;;;;4.72;3.90;;;;;;;;;;5021803;28;20046;-89
2022/09/26 01:22:06;;;;;;;5.05;4.55;;;;;;;;;;5020978;28;20054;-90
2022/09/26 01:24:39;;;;;;;5.45;4.20;;;;;;;;;;5021999;28;20120;-89
2022/09/26 01:27:13;;;;;;;4.65;4.00;;;;;;;;;;5002962;28;20118;-89
2022/09/26 01:30:01;;;;;;;5.22;3.42;;;;;;;;;;5003234;28;20050;-90
2022/09/26 01:32:48;;;;;;;3.28;2.97;;;;;;;;;;5019603;28;20110;-89
2022/09/26 01:35:21;;;;;;;4.68;4.15;;;;;;;;;;5020893;28;20045;-89
2022/09/26 01:37:58;;;;;;;6.00;2.95;;;;;;;;;;5020572;28;20042;-89
2022/09/26 01:40:30;;;;;;;4.97;3.70;;;;;;;;;;5020253;28;20044;-89
2022/09/26 01:43:02;;;;;;;4.13;3.15;;;;;;;;;;5020453;28;20136;-89
2022/09/26 01:45:33;;;;;;;5.10;4.60;;;;;;;;;;5021754;28;20045;-88
2022/09/26 01:48:05;;;;;;;4.10;3.53;;;;;;;;;;5022114;28;20185;-89
2022/09/26 01:50:35;;;;;;;5.13;3.75;;;;;;;;;;5008260;28;20049;-89
2022/09/26 01:53:03;;;;;;;3.97;3.03;;;;;;;;;;5022392;28;20073;-89
2022/09/26 01:55:33;;;;;;;5.10;4.07;;;;;;;;;;5021590;28;20120;-90
2022/09/26 01:58:03;;;;;;;5.30;4.18;;;;;;;;;;5021864;28;20506;-89
2022/09/26 02:00:29;;;;;;;5.13;4.40;;;;;;;;;;5021224;28;20069;-89
2022/09/26 02:02:57;;;;;;;6.05;4.50;;;;;;;;;;5021193;28;20042;-89
2022/09/26 02:05:28;;;;;;;5.22;3.97;;;;;;;;;;5021710;28;20088;-89
2022/09/26 02:07:58;;;;;;;7.30;4.20;;;;;;;;;;5022018;28;20045;-89
2022/09/26 02:10:27;;;;;;;5.47;3.60;;;;;;;;;;5020549;28;20046;-89
2022/09/26 02:12:56;;;;;;;5.03;3.88;;;;;;;;;;5019803;28;20117;-89
2022/09/26 02:15:24;;;;;;;5.78;4.22;;;;;;;;;;5020522;28;20050;-89
2022/09/26 02:17:53;;;;;;;5.43;4.18;;;;;;;;;;5021138;28;20049;-89
2022/09/26 02:20:24;;;;;;;5.57;4.50;;;;;;;;;;5020644;28;20053;-89
2022/09/26 02:22:52;;;;;;;6.45;4.55;;;;;;;;;;5021378;28;20057;-89
2022/09/26 02:25:18;;;;;;;5.63;4.68;;;;;;;;;;5020996;28;20049;-89
2022/09/26 02:27:45;;;;;;;6.07;4.40;;;;;;;;;;5020864;28;20480;-90
2022/09/26 02:30:11;;;;;;;9.00;3.92;;;;;;;;;;5020230;28;20038;-89
2022/09/26 02:32:39;;;;;;;9.93;5.35;;;;;;;;;;5020408;28;20137;-90
2022/09/26 02:35:52;;;;;;;5.50;4.18;;;;;;;;;;5021283;28;20037;-90
2022/09/26 02:38:03;;;;;;;4.93;4.43;;;;;;;;;;5001510;28;20039;-90
2022/09/26 02:40:35;;;;;;;5.25;4.32;;;;;;;;;;5004450;28;20053;-90
2022/09/26 02:43:07;;;;;;;6.47;4.45;;;;;;;;;;5021270;28;20429;-90
2022/09/26 02:45:36;;;;;;;8.85;5.55;;;;;;;;;;5020303;28;20046;-89
2022/09/26 02:48:09;;;;;;;5.88;4.47;;;;;;;;;;5020064;28;20050;-89
2022/09/26 02:50:40;;;;;;;7.05;4.45;;;;;;;;;;5021013;28;20073;-89
2022/09/26 02:53:13;;;;;;;4.70;3.63;;;;;;;;;;5021189;28;20042;-89
2022/09/26 02:55:44;;;;;;;6.03;4.32;;;;;;;;;;5021007;28;20599;-90
2022/09/26 02:58:15;;;;;;;7.45;4.63;;;;;;;;;;5021627;28;20482;-90
2022/09/26 03:00:46;;;;;;;5.57;4.20;;;;;;;;;;5021450;28;20084;-90
2022/09/26 03:03:15;;;;;;;6.40;4.28;;;;;;;;;;5021661;28;20049;-90
2022/09/26 03:05:43;;;;;;;6.45;4.22;;;;;;;;;;5021091;28;20046;-90
2022/09/26 03:08:13;;;;;;;6.57;3.95;;;;;;;;;;5023922;28;20088;-90
2022/09/26 03:10:40;;;;;;;6.13;5.63;;;;;;;;;;5024037;28;20057;-89
2022/09/26 03:13:08;;;;;;;4.47;4.05;;;;;;;;;;5024380;28;20240;-89
2022/09/26 03:15:36;;;;;;;7.07;5.57;;;;;;;;;;5023423;28;20046;-89
2022/09/26 03:18:06;;;;;;;7.40;4.97;;;;;;;;;;5023891;28;20096;-90
2022/09/26 03:20:32;;;;;;;5.22;4.25;;;;;;;;;;5023721;28;20041;-89
2022/09/26 03:22:59;;;;;;;6.00;3.55;;;;;;;;;;5025335;28;20107;-89
2022/09/26 03:25:27;;;;;;;4.75;4.10;;;;;;;;;;5024044;28;20050;-89
2022/09/26 03:27:54;;;;;;;7.60;5.38;;;;;;;;;;5013102;28;20053;-90
2022/09/26 03:30:21;;;;;;;5.70;4.30;;;;;;;;;;5024691;28;20116;-89
2022/09/26 03:32:48;;;;;;;5.00;4.13;;;;;;;;;;5024372;28;20104;-89
2022/09/26 03:35:14;;;;;;;5.90;4.72;;;;;;;;;;5024622;28;20045;-89
2022/09/26 03:37:41;;;;;;;5.05;4.43;;;;;;;;;;5023967;28;20046;-89
2022/09/26 03:40:09;;;;;;;4.68;4.28;;;;;;;;;;5024846;28;20123;-92
2022/09/26 03:42:37;;;;;;;6.10;5.25;;;;;;;;;;5023523;28;20108;-92
2022/09/26 03:45:05;;;;;;;5.70;3.20;;;;;;;;;;5024066;28;20108;-92
2022/09/26 03:47:31;;;;;;;4.75;4.10;;;;;;;;;;5022646;28;20084;-92
2022/09/26 03:49:58;;;;;;;5.43;4.93;;;;;;;;;;5023668;28;20108;-92
2022/09/26 03:52:25;;;;;;;6.90;5.47;;;;;;;;;;5021600;28;20050;-91
2022/09/26 03:54:52;;;;;;;5.53;4.45;;;;;;;;;;5022324;28;20054;-92
2022/09/26 03:57:19;;;;;;;6.55;5.03;;;;;;;;;;5023505;28;20589;-92
2022/09/26 03:59:47;;;;;;;9.75;4.88;;;;;;;;;;5023045;28;20076;-92
2022/09/26 04:02:15;;;;;;;9.35;5.00;;;;;;;;;;5022817;28;20053;-92
2022/09/26 04:04:41;;;;;;;7.40;6.68;;;;;;;;;;5023733;28;20075;-92
2022/09/26 04:07:08;;;;;;;6.03;4.57;;;;;;;;;;5024214;28;20054;-92
2022/09/26 04:09:35;;;;;;;5.85;4.75;;;;;;;;;;5024119;28;20071;-92
2022/09/26 04:12:01;;;;;;;6.43;4.57;;;;;;;;;;5023450;28;20100;-92
2022/09/26 04:14:28;;;;;;;8.65;5.25;;;;;;;;;;5023618;28;20050;-92
2022/09/26 04:16:57;;;;;;;6.00;4.30;;;;;;;;;;5022274;28;20212;-92
2022/09/26 04:19:25;;;;;;;6.20;4.72;;;;;;;;;;5022888;28;20129;-91
2022/09/26 04:21:51;;;;;;;5.70;3.70;;;;;;;;;;5021200;28;20038;-91
2022/09/26 04:24:18;;;;;;;5.80;4.30;;;;;;;;;;5018486;28;20038;-92
2022/09/26 04:26:45;;;;;;;7.40;4.45;;;;;;;;;;5011902;28;20145;-91
2022/09/26 04:29:12;;;;;;;6.07;4.65;;;;;;;;;;5013057;28;20561;-93
2022/09/26 04:31:39;;;;;;;6.13;4.95;;;;;;;;;;5012883;28;20052;-92
2022/09/26 04:34:07;;;;;;;7.00;4.85;;;;;;;;;;5022735;28;20058;-93
2022/09/26 04:36:33;;;;;;;6.97;5.68;;;;;;;;;;5022216;28;20046;-92
2022/09/26 04:39:00;;;;;;;6.47;3.92;;;;;;;;;;5022683;28;20046;-92
2022/09/26 04:41:27;;;;;;;6.70;4.88;;;;;;;;;;5020543;28;20169;-92
2022/09/26 04:43:54;;;;;;;6.82;5.30;;;;;;;;;;5020859;28;20042;-92
2022/09/26 04:46:21;;;;;;;5.63;4.60;;;;;;;;;;5022187;28;20116;-92
2022/09/26 04:48:48;;;;;;;6.15;4.43;;;;;;;;;;5023095;28;20484;-92
2022/09/26 04:51:17;;;;;;;7.80;6.15;;;;;;;;;;5022742;28;20049;-93
2022/09/26 04:53:44;;;;;;;9.45;4.97;;;;;;;;;;5023059;28;20046;-92
2022/09/26 04:56:12;;;;;;;5.43;4.90;;;;;;;;;;5020318;28;20414;-91
2022/09/26 04:58:40;;;;;;;8.27;5.47;;;;;;;;;;5022534;28;20057;-92
2022/09/26 05:01:09;;;;;;;6.35;3.83;;;;;;;;;;5023185;28;20073;-91
2022/09/26 05:03:36;;;;;;;4.90;4.18;;;;;;;;;;5024204;28;20134;-92
2022/09/26 05:06:04;;;;;;;5.75;5.13;;;;;;;;;;5022516;28;20069;-92
2022/09/26 05:08:32;;;;;;;7.30;4.18;;;;;;;;;;5022294;28;20042;-91
2022/09/26 05:11:01;;;;;;;5.65;4.22;;;;;;;;;;5023378;28;20049;-91
2022/09/26 05:13:27;;;;;;;6.03;4.10;;;;;;;;;;5021292;28;20049;-92
2022/09/26 05:15:54;;;;;;;6.32;4.70;;;;;;;;;;5022468;28;20080;-92
2022/09/26 05:18:22;;;;;;;6.40;4.78;;;;;;;;;;5012511;28;20072;-91
2022/09/26 05:20:49;;;;;;;7.95;5.85;;;;;;;;;;5020508;28;20124;-91
2022/09/26 05:26:18;;;;;;;7.90;6.40;;;;;;;;;;5012923;28;20045;-92
2022/09/26 05:26:21;;;;;;;8.65;6.28;;;;;;;;;;5016331;28;20052;-91
2022/09/26 05:28:48;;;;;;;5.88;5.20;;;;;;;;;;5021322;28;20082;-91
2022/09/26 05:31:15;;;;;;;6.57;5.43;;;;;;;;;;5012134;28;20064;-92
2022/09/26 05:33:41;;;;;;;8.57;6.57;;;;;;;;;;5000696;28;20042;-92
2022/09/26 05:36:08;;;;;;;7.20;5.43;;;;;;;;;;4999808;28;20046;-92
2022/09/26 05:38:34;;;;;;;5.53;4.68;;;;;;;;;;5001092;28;20041;-92
2022/09/26 05:41:00;;;;;;;5.63;3.97;;;;;;;;;;5016914;28;20080;-92
2022/09/26 05:43:29;;;;;;;6.85;4.78;;;;;;;;;;5016587;28;20057;-91
2022/09/26 05:45:59;;;;;;;4.80;3.88;;;;;;;;;;5018562;28;20451;-92
2022/09/26 05:48:25;;;;;;;4.25;3.53;;;;;;;;;;5010661;28;20078;-91
2022/09/26 05:50:52;;;;;;;5.05;4.20;;;;;;;;;;5001300;28;20129;-93
2022/09/26 05:53:19;;;;;;;5.22;4.60;;;;;;;;;;5014958;28;20105;-92
2022/09/26 05:55:48;;;;;;;7.47;5.80;;;;;;;;;;5017379;28;20099;-92
2022/09/26 05:58:17;;;;;;;5.28;4.75;;;;;;;;;;4998472;28;20069;-92
2022/09/26 06:00:46;;;;;;;4.70;4.13;;;;;;;;;;4999379;28;20038;-91
2022/09/26 06:03:13;;;;;;;5.25;4.50;;;;;;;;;;4997951;28;20096;-91
2022/09/26 06:05:40;;;;;;;9.45;5.40;;;;;;;;;;4997873;28;20046;-91
2022/09/26 06:08:07;;;;;;;10.63;5.47;;;;;;;;;;4997251;28;20050;-91
2022/09/26 06:10:34;;;;;;;5.30;4.80;;;;;;;;;;5001867;28;20076;-92
2022/09/26 06:13:01;;;;;;;5.90;5.28;;;;;;;;;;5016163;28;20104;-92
2022/09/26 06:15:28;;;;;;;5.43;4.50;;;;;;;;;;5011729;28;20144;-91
2022/09/26 06:18:00;;;;;;;4.97;3.75;;;;;;;;;;5015275;28;20056;-92
2022/09/26 06:20:26;;;;;;;5.05;4.55;;;;;;;;;;5017415;28;20108;-92
2022/09/26 06:22:54;;;;;;;6.60;4.90;;;;;;;;;;5016471;28;20131;-92
2022/09/26 06:25:20;;;;;;;6.20;5.30;;;;;;;;;;5018032;28;20052;-89
2022/09/26 06:27:47;;;;;;;6.18;4.90;;;;;;;;;;5015600;28;20116;-89
2022/09/26 06:30:15;;;;;;;5.38;4.85;;;;;;;;;;5019421;28;20048;-89
2022/09/26 06:32:41;;;;;;;7.15;5.57;;;;;;;;;;5018984;28;20544;-89
2022/09/26 06:35:10;;;;;;;7.68;4.53;;;;;;;;;;5019176;28;20053;-90
2022/09/26 06:37:37;;;;;;;5.78;4.47;;;;;;;;;;5018285;28;20097;-89
2022/09/26 06:40:03;;;;;;;4.85;4.05;;;;;;;;;;5017612;28;20054;-89
2022/09/26 06:42:36;;;;;;;4.25;3.58;;;;;;;;;;5021873;28;20042;-89
2022/09/26 06:45:03;;;;;;;7.43;4.40;;;;;;;;;;5025814;28;20072;-89
2022/09/26 06:47:30;;;;;;;3.72;3.28;;;;;;;;;;5026015;28;20401;-89
2022/09/26 06:49:56;;;;;;;4.82;4.35;;;;;;;;;;5026099;28;20054;-89
2022/09/26 06:52:25;;;;;;;3.92;3.63;;;;;;;;;;5025797;28;20061;-89
2022/09/26 06:54:53;;;;;;;7.40;5.50;;;;;;;;;;5025949;28;20046;-89
2022/09/26 06:57:19;;;;;;;4.22;3.83;;;;;;;;;;5025422;28;20054;-89
2022/09/26 06:59:46;;;;;;;4.95;4.55;;;;;;;;;;5025682;28;20054;-89
2022/09/26 07:02:15;;;;;;;5.00;4.47;;;;;;;;;;5025336;28;20046;-89
2022/09/26 07:04:42;;;;;;;4.85;4.18;;;;;;;;;;5025660;28;20056;-89
2022/09/26 07:07:08;;;;;;;3.92;3.58;;;;;;;;;;5025654;28;20050;-89
2022/09/26 07:09:36;;;;;;;4.85;4.10;;;;;;;;;;5024998;28;20042;-89
2022/09/26 07:12:04;;;;;;;5.40;4.63;;;;;;;;;;5022918;28;20042;-89
2022/09/26 07:14:30;;;;;;;4.28;2.60;;;;;;;;;;5023435;28;20406;-89
2022/09/26 07:16:57;;;;;;;4.78;3.45;;;;;;;;;;5023629;28;20394;-89
2022/09/26 07:19:23;;;;;;;4.32;3.83;;;;;;;;;;5023468;28;20076;-90
2022/09/26 07:21:50;;;;;;;3.95;3.63;;;;;;;;;;5023705;28;20103;-89
2022/09/26 07:24:16;;;;;;;4.72;4.32;;;;;;;;;;5023219;28;20053;-89
2022/09/26 07:26:44;;;;;;;5.47;3.20;;;;;;;;;;5024389;28;20521;-89
2022/09/26 07:29:11;;;;;;;4.13;3.83;;;;;;;;;;5024195;28;20081;-89
2022/09/26 07:31:37;;;;;;;4.50;4.20;;;;;;;;;;5024769;28;20706;-89
2022/09/26 07:34:04;;;;;;;4.72;4.10;;;;;;;;;;5024126;28;20133;-90
2022/09/26 07:36:31;;;;;;;8.20;4.25;;;;;;;;;;5022970;28;20088;-89
2022/09/26 07:38:57;;;;;;;3.63;3.30;;;;;;;;;;5022795;28;20145;-89
2022/09/26 07:41:24;;;;;;;4.72;4.32;;;;;;;;;;5025074;28;20058;-90
2022/09/26 07:43:52;;;;;;;5.38;4.43;;;;;;;;;;5024406;28;20449;-89
2022/09/26 07:51:47;;;;;;;4.63;4.22;;;;;;;;;;5021789;28;20192;-89
2022/09/26 07:54:13;;;;;;;4.55;4.22;;;;;;;;;;5021084;28;20054;-90
2022/09/26 07:56:42;;;;;;;4.90;4.57;;;;;;;;;;5022390;28;20418;-89
2022/09/26 07:59:11;;;;;;;4.25;3.88;;;;;;;;;;5022700;28;20372;-90
2022/09/26 08:01:37;;;;;;;7.15;3.78;;;;;;;;;;5024052;28;20496;-88
2022/09/26 08:04:05;;;;;;;5.15;3.33;;;;;;;;;;5023919;28;20042;-89
2022/09/26 08:06:33;;;;;;;4.70;3.33;;;;;;;;;;5023529;28;20038;-88
2022/09/26 08:09:00;;;;;;;6.10;3.78;;;;;;;;;;5022877;28;20072;-89
2022/09/26 08:11:26;;;;;;;3.78;3.42;;;;;;;;;;5023527;28;20068;-89
2022/09/26 08:13:54;;;;;;;8.50;3.75;;;;;;;;;;5024432;28;20054;-90
2022/09/26 08:16:22;;;;;;;4.22;3.83;;;;;;;;;;5024049;28;20045;-89
2022/09/26 08:18:49;;;;;;;4.38;4.07;;;;;;;;;;5023312;28;20110;-89
2022/09/26 08:21:16;;;;;;;5.35;3.83;;;;;;;;;;5023057;28;20038;-89
2022/09/26 08:23:43;;;;;;;4.90;4.50;;;;;;;;;;5022568;28;20145;-89
2022/09/26 08:26:09;;;;;;;4.03;3.63;;;;;;;;;;5023088;28;20081;-90
2022/09/26 08:28:37;;;;;;;4.22;3.85;;;;;;;;;;5023053;28;20050;-89
2022/09/26 08:31:04;;;;;;;4.25;3.85;;;;;;;;;;5022668;28;20092;-89
2022/09/26 08:33:34;;;;;;;5.10;4.70;;;;;;;;;;5021846;28;20045;-89
2022/09/26 08:36:02;;;;;;;3.50;3.05;;;;;;;;;;5023690;28;20125;-89
2022/09/26 08:38:29;;;;;;;3.53;3.25;;;;;;;;;;5023064;28;20046;-89
2022/09/26 08:41:00;;;;;;;4.10;2.75;;;;;;;;;;5023749;28;20069;-89
2022/09/26 08:43:41;;;;;;;3.30;2.88;;;;;;;;;;5022913;28;20046;-89
2022/09/26 08:49:15;;;;;;;3.80;3.50;;;;;;;;;;5018098;28;20069;-89
2022/09/26 08:51:45;;;;;;;8.63;3.28;;;;;;;;;;5023471;28;20048;-90
2022/09/26 08:54:14;;;;;;;7.47;4.18;;;;;;;;;;5022856;28;20437;-90
2022/09/26 08:56:43;;;;;;;3.58;3.35;;;;;;;;;;5022768;28;20050;-89
2022/09/26 08:59:14;;;;;;;5.32;4.10;;;;;;;;;;5021788;28;20077;-89
2022/09/26 09:01:42;;;;;;;3.45;3.17;;;;;;;;;;5022274;28;20045;-90
2022/09/26 09:04:13;;;;;;;4.45;4.15;;;;;;;;;;5021487;28;20046;-89
2022/09/26 09:06:40;;;;;;;4.03;3.65;;;;;;;;;;5022117;28;20050;-89
2022/09/26 09:09:06;;;;;;;3.83;3.50;;;;;;;;;;5022114;28;20045;-89
2022/09/26 09:11:49;;;;;;;4.80;4.38;;;;;;;;;;5020545;28;20077;-89
2022/09/26 09:14:22;;;;;;;4.15;3.53;;;;;;;;;;5020649;28;20121;-92
2022/09/26 09:16:54;;;;;;;3.97;3.67;;;;;;;;;;5022337;28;20560;-89
2022/09/26 09:19:26;;;;;;;4.38;4.03;;;;;;;;;;5022716;28;20098;-91
2022/09/26 09:22:00;;;;;;;2.42;2.00;;;;;;;;;;5022343;28;20075;-89
2022/09/26 09:24:36;;;;;;;3.50;2.75;;;;;;;;;;5022419;28;20046;-89
2022/09/26 09:27:13;;;;;;;4.90;4.53;;;;;;;;;;5021676;28;20046;-90
2022/09/26 09:29:55;;;;;;;4.40;4.05;;;;;;;;;;5021104;28;20125;-90
2022/09/26 09:32:23;;;;;;;3.85;3.55;;;;;;;;;;5021154;28;20137;-89
2022/09/26 09:34:51;;;;;;;3.17;2.88;;;;;;;;;;5021366;28;20046;-90
2022/09/26 09:37:21;;;;;;;3.97;3.65;;;;;;;;;;5020489;28;20058;-89
2022/09/26 09:39:48;;;;;;;3.80;3.42;;;;;;;;;;5020958;28;20049;-89
2022/09/26 09:42:19;;;;;;;4.25;3.88;;;;;;;;;;5022285;28;20096;-89
2022/09/26 09:44:47;;;;;;;4.75;4.43;;;;;;;;;;5022287;28;20054;-89
2022/09/26 09:47:15;;;;;;;3.75;3.55;;;;;;;;;;5021500;28;20452;-90
2022/09/26 09:49:41;;;;;;;3.58;3.35;;;;;;;;;;5020772;28;20104;-92
2022/09/26 09:52:19;;;;;;;5.18;4.78;;;;;;;;;;5021520;28;20052;-90
2022/09/26 09:54:52;;;;;;;5.07;4.68;;;;;;;;;;5021393;28;20085;-88
2022/09/26 09:57:28;;;;;;;5.35;4.95;;;;;;;;;;5020877;28;20107;-90
2022/09/26 10:00:09;;;;;;;4.65;4.25;;;;;;;;;;5020704;28;20046;-89
2022/09/26 10:02:39;;;;;;;4.22;3.92;;;;;;;;;;5021158;28;20081;-90
2022/09/26 10:05:16;;;;;;;3.67;3.38;;;;;;;;;;5021128;28;20053;-90
2022/09/26 10:07:46;;;;;;;4.43;4.03;;;;;;;;;;5020953;28;20124;-90
2022/09/26 10:10:17;;;;;;;4.78;4.38;;;;;;;;;;5021679;28;20548;-89
2022/09/26 10:12:43;;;;;;;4.78;4.47;;;;;;;;;;5021621;28;20056;-89
2022/09/26 10:15:18;;;;;;;4.13;3.83;;;;;;;;;;5021570;28;20065;-89
2022/09/26 10:17:57;;;;;;;4.82;4.53;;;;;;;;;;5022116;28;20109;-90
2022/09/26 10:20:34;;;;;;;4.72;4.22;;;;;;;;;;5021294;28;20379;-90
2022/09/26 10:23:05;;;;;;;5.28;4.85;;;;;;;;;;5019671;28;20415;-90
2022/09/26 10:25:31;;;;;;;5.07;4.65;;;;;;;;;;5019765;28;20105;-90
2022/09/26 10:27:59;;;;;;;4.10;3.35;;;;;;;;;;5018978;28;20053;-89
2022/09/26 10:30:28;;;;;;;4.43;4.13;;;;;;;;;;5019231;28;20058;-90
2022/09/26 10:32:57;;;;;;;5.05;4.68;;;;;;;;;;5020629;28;20314;-90
2022/09/26 10:35:24;;;;;;;4.63;4.32;;;;;;;;;;5020668;28;20539;-89
2022/09/26 10:37:58;;;;;;;5.43;3.70;;;;;;;;;;5020305;28;20042;-90
2022/09/26 10:40:47;;;;;;;3.53;2.88;;;;;;;;;;5020802;28;20049;-89
2022/09/26 10:43:20;;;;;;;4.60;4.25;;;;;;;;;;5020859;28;20561;-90
2022/09/26 10:45:47;;;;;;;5.07;4.68;;;;;;;;;;5020238;28;20057;-90
2022/09/26 10:48:17;;;;;;;5.05;4.65;;;;;;;;;;5019760;28;20049;-89
2022/09/26 10:50:47;;;;;;;4.30;4.00;;;;;;;;;;5000808;28;20046;-90
2022/09/26 10:53:14;;;;;;;;;;;;;;;;;;4999331;28;20046;-90
2022/09/26 10:55:43;;;;;;;5.43;4.10;;;;;;;;;;5011319;28;19933;-90
2022/09/26 10:58:16;;;;;;;6.30;5.90;;;;;;;;;;5019782;28;20046;-89
2022/09/26 11:00:43;;;;;;;4.32;4.00;;;;;;;;;;5019723;28;20046;-90
2022/09/26 11:03:11;;;;;;;4.15;3.85;;;;;;;;;;5019933;28;20065;-89
2022/09/26 11:05:58;;;;;;;6.35;4.20;;;;;;;;;;5020803;28;20089;-89
2022/09/26 11:08:25;;;;;;;6.07;5.68;;;;;;;;;;5019856;28;20050;-90
2022/09/26 11:10:54;;;;;;;4.13;3.83;;;;;;;;;;5017811;28;20050;-90
2022/09/26 11:13:21;;;;;;;5.50;5.00;;;;;;;;;;5018562;28;20068;-90
2022/09/26 11:16:00;;;;;;;3.78;3.47;;;;;;;;;;5020678;28;20050;-90
2022/09/26 11:18:30;;;;;;;4.85;4.50;;;;;;;;;;5021244;28;20042;-90
2022/09/26 11:21:01;;;;;;;4.10;3.78;;;;;;;;;;5020399;28;20120;-90
2022/09/26 11:23:34;;;;;;;4.57;4.18;;;;;;;;;;5019625;28;20112;-90
2022/09/26 11:26:08;;;;;;;4.90;4.30;;;;;;;;;;5019767;28;20050;-89
2022/09/26 11:28:37;;;;;;;3.80;3.35;;;;;;;;;;5020891;28;20116;-89
2022/09/26 11:31:08;;;;;;;5.50;5.00;;;;;;;;;;5022257;28;20113;-91
2022/09/26 11:33:36;;;;;;;7.13;6.72;;;;;;;;;;5023524;28;20251;-90
2022/09/26 11:36:13;;;;;;;4.10;3.80;;;;;;;;;;5024569;28;20085;-90
2022/09/26 11:38:45;;;;;;;3.40;3.10;;;;;;;;;;5024148;28;20058;-89
2022/09/26 11:41:35;;;;;;;4.07;3.78;;;;;;;;;;5002034;28;20046;-90
2022/09/26 11:44:08;;;;;;;4.35;4.05;;;;;;;;;;5003736;28;20590;-90
2022/09/26 11:46:38;;;;;;;4.30;3.90;;;;;;;;;;5024347;28;20441;-91
2022/09/26 11:49:16;;;;;;;3.80;3.08;;;;;;;;;;5025109;28;20076;-90
2022/09/26 11:51:54;;;;;;;4.60;3.65;;;;;;;;;;5023321;28;20335;-90
2022/09/26 11:54:26;;;;;;;4.28;3.97;;;;;;;;;;5022364;28;20084;-90
2022/09/26 11:57:00;;;;;;;2.88;2.67;;;;;;;;;;5023772;28;20049;-90
2022/09/26 11:59:36;;;;;;;3.17;2.63;;;;;;;;;;5023811;28;21145;-90
2022/09/26 12:02:14;;;;;;;5.65;5.25;;;;;;;;;;5023700;28;20192;-90
2022/09/26 12:04:54;;;;;;;4.28;3.88;;;;;;;;;;5024311;28;20526;-90
2022/09/26 12:07:22;;;;;;;3.45;3.17;;;;;;;;;;5024490;28;20050;-90
2022/09/26 12:10:02;;;;;;;3.17;2.97;;;;;;;;;;5023977;28;20049;-90
2022/09/26 12:12:33;;;;;;;4.45;4.13;;;;;;;;;;5023203;28;20084;-90
2022/09/26 12:15:11;;;;;;;4.90;4.28;;;;;;;;;;5023047;28;20053;-90
2022/09/26 12:17:43;;;;;;;4.60;4.20;;;;;;;;;;5023380;28;20050;-90
2022/09/26 12:20:23;;;;;;;5.20;3.28;;;;;;;;;;5023915;28;20513;-90
2022/09/26 12:22:55;;;;;;;4.35;3.95;;;;;;;;;;5023405;28;20049;-89
2022/09/26 12:25:27;;;;;;;3.97;3.70;;;;;;;;;;5023324;28;20097;-90
2022/09/26 12:28:01;;;;;;;6.22;3.22;;;;;;;;;;5023318;28;20480;-89
2022/09/26 12:30:32;;;;;;;4.60;4.30;;;;;;;;;;5023450;28;20058;-90
2022/09/26 12:33:06;;;;;;;4.78;4.45;;;;;;;;;;5023576;28;20049;-90
2022/09/26 12:35:43;;;;;;;3.85;3.55;;;;;;;;;;5023948;28;20050;-91
2022/09/26 12:38:31;;;;;;;6.55;5.97;;;;;;;;;;5023256;28;20046;-90
2022/09/26 12:41:02;;;;;;;5.82;5.50;;;;;;;;;;5023002;28;20077;-89
2022/09/26 12:43:45;;;;;;;5.07;4.68;;;;;;;;;;5022531;28;20105;-89
2022/09/26 12:46:27;;;;;;;3.40;3.10;;;;;;;;;;5021888;28;20332;-90
2022/09/26 12:49:00;;;;;;;5.70;5.30;;;;;;;;;;5021095;28;20102;-89
2022/09/26 12:51:35;;;;;;;4.57;4.00;;;;;;;;;;5021402;28;20042;-89
2022/09/26 12:54:09;;;;;;;4.43;3.97;;;;;;;;;;5021444;28;20057;-90
2022/09/26 12:56:45;;;;;;;6.00;5.60;;;;;;;;;;5020682;28;20046;-90
2022/09/26 12:59:30;;;;;;;5.95;5.45;;;;;;;;;;5008811;28;20053;-90
2022/09/26 13:02:04;;;;;;;5.47;4.97;;;;;;;;;;5013253;28;20081;-90
2022/09/26 13:04:41;;;;;;;6.05;5.47;;;;;;;;;;5012399;28;20049;-90
2022/09/26 13:07:18;;;;;;;5.43;5.03;;;;;;;;;;5018783;28;20045;-89
2022/09/26 13:09:52;;;;;;;5.18;4.75;;;;;;;;;;5010277;28;20073;-89
2022/09/26 13:12:29;;;;;;;4.90;4.45;;;;;;;;;;5015545;28;20042;-90
2022/09/26 13:15:02;;;;;;;7.32;6.28;;;;;;;;;;5002836;28;20497;-89
2022/09/26 13:17:32;;;;;;;7.10;5.25;;;;;;;;;;5015918;28;20069;-90
2022/09/26 13:20:00;;;;;;;5.60;5.15;;;;;;;;;;5009702;28;20054;-91
2022/09/26 13:22:33;;;;;;;4.93;4.43;;;;;;;;;;5006964;28;20075;-91
2022/09/26 13:25:02;;;;;;;5.75;5.35;;;;;;;;;;5001017;28;20048;-90
2022/09/26 13:27:33;;;;;;;7.80;7.30;;;;;;;;;;5013156;28;20107;-91
2022/09/26 13:30:02;;;;;;;6.00;4.57;;;;;;;;;;5020187;28;20042;-90
2022/09/26 13:32:35;;;;;;;6.38;5.88;;;;;;;;;;5002584;28;20054;-89
2022/09/26 13:35:06;;;;;;;5.97;5.47;;;;;;;;;;5005396;28;20206;-91
2022/09/26 13:37:39;;;;;;;5.97;5.57;;;;;;;;;;5016498;28;20042;-90
2022/09/26 13:40:15;;;;;;;8.15;7.65;;;;;;;;;;5012200;28;20042;-91
2022/09/26 13:42:43;;;;;;;6.28;5.65;;;;;;;;;;4999265;28;20987;-91
2022/09/26 13:45:18;;;;;;;6.45;5.90;;;;;;;;;;5000494;28;20051;-91
2022/09/26 13:47:49;;;;;;;6.65;6.22;;;;;;;;;;5001073;28;20046;-91
2022/09/26 13:50:21;;;;;;;5.93;5.40;;;;;;;;;;5000098;28;20046;-90
2022/09/26 13:52:56;;;;;;;5.90;5.30;;;;;;;;;;4998254;28;20073;-91
2022/09/26 13:55:24;;;;;;;4.28;3.78;;;;;;;;;;5013445;28;20041;-90
2022/09/26 13:58:03;;;;;;;6.97;6.47;;;;;;;;;;4998672;28;20065;-90
2022/09/26 14:00:40;;;;;;;6.00;5.53;;;;;;;;;;4997241;28;20042;-89
2022/09/26 14:03:25;;;;;;;5.90;5.40;;;;;;;;;;5014529;28;20042;-90
2022/09/26 14:06:07;;;;;;;7.25;6.72;;;;;;;;;;5015764;28;20042;-90
2022/09/26 14:11:26;;;;;;;7.07;5.75;;;;;;;;;;5020511;28;20060;-91
2022/09/26 14:14:14;;;;;;;5.57;5.18;;;;;;;;;;5021534;28;20049;-92
2022/09/26 14:16:40;;;;;;;5.00;4.63;;;;;;;;;;5006498;28;20046;-91
2022/09/26 14:19:08;;;;;;;4.50;4.20;;;;;;;;;;5002366;28;20577;-91
2022/09/26 14:21:38;;;;;;;6.13;4.45;;;;;;;;;;5014589;28;20794;-91
2022/09/26 14:24:23;;;;;;;3.60;3.03;;;;;;;;;;5019582;28;20042;-92
2022/09/26 14:26:50;;;;;;;3.85;3.45;;;;;;;;;;5020892;28;20050;-91
2022/09/26 14:29:24;;;;;;;5.05;4.65;;;;;;;;;;5020531;28;20582;-92
2022/09/26 14:32:00;;;;;;;5.00;4.53;;;;;;;;;;5009210;28;20053;-91
2022/09/26 14:34:29;;;;;;;5.45;3.90;;;;;;;;;;5010660;28;20052;-91
2022/09/26 14:37:00;;;;;;;6.53;6.13;;;;;;;;;;5019297;28;20560;-90
2022/09/26 14:39:34;;;;;;;3.95;3.65;;;;;;;;;;5003506;28;20124;-92
2022/09/26 14:42:19;;;;;;;5.10;4.63;;;;;;;;;;5017718;28;20050;-91
2022/09/26 14:44:48;;;;;;;5.78;5.22;;;;;;;;;;5020907;28;20105;-91
2022/09/26 14:47:16;;;;;;;4.00;3.70;;;;;;;;;;5019972;28;20049;-92
2022/09/26 14:49:43;;;;;;;6.15;5.65;;;;;;;;;;5020131;28;20096;-91
2022/09/26 14:52:15;;;;;;;4.50;4.07;;;;;;;;;;5015536;28;20053;-90
2022/09/26 14:54:42;;;;;;;8.98;4.30;;;;;;;;;;5015813;28;20053;-92
2022/09/26 14:57:18;;;;;;;4.53;4.20;;;;;;;;;;5020858;28;20054;-91
2022/09/26 14:59:45;;;;;;;4.35;4.03;;;;;;;;;;5021725;28;20058;-90
2022/09/26 15:02:24;;;;;;;5.50;5.00;;;;;;;;;;5012413;28;20045;-91
2022/09/26 15:04:56;;;;;;;5.03;4.70;;;;;;;;;;5024957;28;20046;-91
2022/09/26 15:07:24;;;;;;;4.88;4.50;;;;;;;;;;5024498;28;20057;-91
2022/09/26 15:09:55;;;;;;;7.43;6.93;;;;;;;;;;5010518;28;20065;-91
2022/09/26 15:12:25;;;;;;;7.32;4.28;;;;;;;;;;5023435;28;20060;-91